createdAt,value
2018-05-24T00:00:03.087Z,70.60
2018-05-24T00:02:06.441Z,71.20
2018-05-24T00:04:09.774Z,71.60
2018-05-24T00:06:13.128Z,71.00
2018-05-24T00:08:16.605Z,71.40
2018-05-24T00:10:19.964Z,71.80
2018-05-24T00:12:23.278Z,71.90
2018-05-24T00:14:26.629Z,70.90
2018-05-24T00:16:30.004Z,71.40
2018-05-24T00:18:33.475Z,71.40
2018-05-24T00:20:36.865Z,71.80
2018-05-24T00:22:40.269Z,71.70
2018-05-24T00:24:43.640Z,71.60
2018-05-24T00:26:47.015Z,72.00
2018-05-24T00:28:50.700Z,71.70
2018-05-24T00:30:54.835Z,72.40
2018-05-24T00:32:58.375Z,72.10
2018-05-24T00:35:01.741Z,71.70
2018-05-24T00:37:05.092Z,71.30
2018-05-24T00:39:09.410Z,71.70
2018-05-24T00:41:13.603Z,71.10
2018-05-24T00:43:19.043Z,70.70
2018-05-24T00:45:23.180Z,71.00
2018-05-24T00:47:27.409Z,71.30
2018-05-24T00:49:30.985Z,71.20
2018-05-24T00:51:35.187Z,70.10
2018-05-24T00:53:38.675Z,70.20
2018-05-24T00:55:42.780Z,70.50
2018-05-24T00:57:46.152Z,70.50
2018-05-24T00:59:50.094Z,70.30
2018-05-24T01:01:53.444Z,70.00
2018-05-24T01:03:56.785Z,69.80
2018-05-24T01:06:00.848Z,69.50
2018-05-24T01:08:04.307Z,69.60
2018-05-24T01:10:07.646Z,69.20
2018-05-24T01:12:11.082Z,69.00
2018-05-24T01:14:15.174Z,68.80
2018-05-24T01:16:18.505Z,68.80
2018-05-24T01:18:21.859Z,68.30
2018-05-24T01:20:25.192Z,68.40
2018-05-24T01:22:28.542Z,68.40
2018-05-24T01:24:31.870Z,68.80
2018-05-24T01:26:35.216Z,68.70
2018-05-24T01:28:38.564Z,68.20
2018-05-24T01:30:41.894Z,68.50
2018-05-24T01:32:45.402Z,68.90
2018-05-24T01:34:48.916Z,68.80
2018-05-24T01:37:09.715Z,69.40
2018-05-24T01:39:13.045Z,69.30
2018-05-24T01:41:16.608Z,68.80
2018-05-24T01:43:20.722Z,68.60
2018-05-24T01:45:24.069Z,68.50
2018-05-24T01:47:27.573Z,68.50
2018-05-24T01:49:31.162Z,68.70
2018-05-24T01:51:34.459Z,68.70
2018-05-24T01:53:37.861Z,68.50
2018-05-24T01:55:41.170Z,68.70
2018-05-24T01:57:44.530Z,68.20
2018-05-24T01:59:47.937Z,67.90
2018-05-24T02:01:51.237Z,67.80
2018-05-24T02:03:54.573Z,67.00
2018-05-24T02:05:57.886Z,67.60
2018-05-24T02:08:01.188Z,67.90
2018-05-24T02:10:04.533Z,67.70
2018-05-24T02:12:07.860Z,67.60
2018-05-24T02:14:11.177Z,67.30
2018-05-24T02:16:14.494Z,68.00
2018-05-24T02:18:17.837Z,67.00
2018-05-24T02:20:21.144Z,66.80
2018-05-24T02:22:24.462Z,67.00
2018-05-24T02:24:28.653Z,66.50
2018-05-24T02:26:31.975Z,66.40
2018-05-24T02:28:35.300Z,66.30
2018-05-24T02:30:38.885Z,66.30
2018-05-24T02:32:42.215Z,66.50
2018-05-24T02:34:45.719Z,66.70
2018-05-24T02:36:49.063Z,66.60
2018-05-24T02:38:52.364Z,66.40
2018-05-24T02:40:55.786Z,66.70
2018-05-24T02:42:59.131Z,67.00
2018-05-24T02:45:03.293Z,67.70
2018-05-24T02:47:06.629Z,67.70
2018-05-24T02:49:09.975Z,67.90
2018-05-24T02:51:13.295Z,68.10
2018-05-24T02:53:16.632Z,68.50
2018-05-24T02:55:19.946Z,68.30
2018-05-24T02:57:23.267Z,68.50
2018-05-24T02:59:26.619Z,68.80
2018-05-24T03:01:29.946Z,69.10
2018-05-24T03:03:33.294Z,68.80
2018-05-24T03:05:36.610Z,69.60
2018-05-24T03:07:39.943Z,68.80
2018-05-24T03:09:44.062Z,68.80
2018-05-24T03:11:47.380Z,68.80
2018-05-24T03:13:50.763Z,68.40
2018-05-24T03:15:54.081Z,68.80
2018-05-24T03:17:57.410Z,68.70
2018-05-24T03:20:00.754Z,68.70
2018-05-24T03:22:04.095Z,68.90
2018-05-24T03:24:08.426Z,68.60
2018-05-24T03:26:11.784Z,68.60
2018-05-24T03:28:15.112Z,69.10
2018-05-24T03:30:18.459Z,69.60
2018-05-24T03:32:21.779Z,70.00
2018-05-24T03:34:25.921Z,71.50
2018-05-24T03:36:29.242Z,71.40
2018-05-24T03:38:32.595Z,72.20
2018-05-24T03:40:35.971Z,73.10
2018-05-24T03:42:40.091Z,74.60
2018-05-24T03:44:44.245Z,75.00
2018-05-24T03:46:47.603Z,75.00
2018-05-24T03:48:50.923Z,76.10
2018-05-24T03:50:54.236Z,77.00
2018-05-24T03:52:57.559Z,77.80
2018-05-24T03:55:01.696Z,79.60
2018-05-24T03:57:05.008Z,79.60
2018-05-24T04:02:31.179Z,81.60
2018-05-24T04:04:58.760Z,82.50
2018-05-24T04:07:02.832Z,83.70
2018-05-24T04:09:06.308Z,83.50
2018-05-24T04:11:09.626Z,84.20
2018-05-24T04:13:12.956Z,84.40
2018-05-24T04:15:17.059Z,85.50
2018-05-24T04:17:20.410Z,85.40
2018-05-24T04:19:23.810Z,86.50
2018-05-24T04:21:27.212Z,87.00
2018-05-24T04:23:30.535Z,88.10
2018-05-24T04:25:34.800Z,90.10
2018-05-24T04:27:38.154Z,90.00
2018-05-24T04:29:42.247Z,90.60
2018-05-24T04:31:46.660Z,91.10
2018-05-24T04:33:51.784Z,90.60
2018-05-24T04:35:55.145Z,90.60
2018-05-24T04:37:58.876Z,90.80
2018-05-24T04:40:02.580Z,91.00
2018-05-24T04:42:05.953Z,91.30
2018-05-24T04:44:09.310Z,92.20
2018-05-24T04:46:12.802Z,94.00
2018-05-24T04:48:16.143Z,96.30
2018-05-24T04:50:19.526Z,96.60
2018-05-24T04:52:23.680Z,98.70
2018-05-24T04:54:28.502Z,99.90
2018-05-24T04:56:32.609Z,99.90
2018-05-24T04:58:36.748Z,99.90
2018-05-24T05:00:40.386Z,99.90
2018-05-24T05:02:43.756Z,99.90
2018-05-24T05:04:47.888Z,99.90
2018-05-24T05:06:51.213Z,99.90
2018-05-24T05:08:55.295Z,99.90
2018-05-24T05:10:58.647Z,99.90
2018-05-24T05:13:02.015Z,99.90
2018-05-24T05:15:05.450Z,99.90
2018-05-24T05:17:08.825Z,99.90
2018-05-24T05:19:12.240Z,99.90
2018-05-24T05:21:15.559Z,99.90
2018-05-24T05:23:18.970Z,99.90
2018-05-24T05:25:23.985Z,99.90
2018-05-24T05:27:28.181Z,99.90
2018-05-24T05:29:31.551Z,99.90
2018-05-24T05:31:35.324Z,99.90
2018-05-24T05:33:38.671Z,99.90
2018-05-24T05:35:42.032Z,99.90
2018-05-24T05:37:45.449Z,99.90
2018-05-24T05:39:48.918Z,99.90
2018-05-24T05:41:52.323Z,99.90
2018-05-24T05:43:55.950Z,99.90
2018-05-24T05:45:59.429Z,99.90
2018-05-24T05:48:02.845Z,99.90
2018-05-24T05:50:06.239Z,99.90
2018-05-24T05:52:09.694Z,99.90
2018-05-24T05:54:12.935Z,99.90
2018-05-24T05:56:16.326Z,99.90
2018-05-24T05:58:19.635Z,99.90
2018-05-24T06:00:24.603Z,99.90
2018-05-24T06:02:27.949Z,99.90
2018-05-24T06:04:32.129Z,99.90
2018-05-24T06:06:35.541Z,99.90
2018-05-24T06:08:38.985Z,99.90
2018-05-24T06:10:42.415Z,99.90
2018-05-24T06:12:45.740Z,99.90
2018-05-24T06:15:06.237Z,99.90
2018-05-24T06:17:09.788Z,99.90
2018-05-24T06:19:13.187Z,99.90
2018-05-24T06:21:16.508Z,99.90
2018-05-24T06:23:19.908Z,99.90
2018-05-24T06:25:23.337Z,99.90
2018-05-24T06:27:26.679Z,99.90
2018-05-24T06:29:29.972Z,99.90
2018-05-24T06:31:33.304Z,99.90
2018-05-24T06:33:36.663Z,99.90
2018-05-24T06:35:40.030Z,99.90
2018-05-24T06:37:43.403Z,99.90
2018-05-24T06:39:46.779Z,99.90
2018-05-24T06:41:50.203Z,99.90
2018-05-24T06:43:53.599Z,99.90
2018-05-24T06:45:56.972Z,99.90
2018-05-24T06:48:00.300Z,99.90
2018-05-24T06:50:03.645Z,99.90
2018-05-24T06:52:06.971Z,99.90
2018-05-24T06:54:10.334Z,99.90
2018-05-24T06:56:13.720Z,99.90
2018-05-24T06:58:17.259Z,99.90
2018-05-24T07:00:20.600Z,99.90
2018-05-24T07:02:24.295Z,99.90
2018-05-24T07:04:27.719Z,99.90
2018-05-24T07:06:31.093Z,99.90
2018-05-24T07:08:34.533Z,99.90
2018-05-24T07:10:39.630Z,99.90
2018-05-24T07:12:43.060Z,99.90
2018-05-24T07:14:46.469Z,99.90
2018-05-24T07:16:50.575Z,99.90
2018-05-24T07:18:53.935Z,99.90
2018-05-24T07:20:57.611Z,99.90
2018-05-24T07:23:01.006Z,99.90
2018-05-24T07:25:04.413Z,99.90
2018-05-24T07:27:08.016Z,99.90
2018-05-24T07:29:11.372Z,99.90
2018-05-24T07:31:14.765Z,99.90
2018-05-24T07:33:18.242Z,99.90
2018-05-24T07:35:21.578Z,99.90
2018-05-24T07:37:24.919Z,99.90
2018-05-24T07:39:28.309Z,99.90
2018-05-24T07:41:31.687Z,99.90
2018-05-24T07:43:35.008Z,99.90
2018-05-24T07:45:38.368Z,99.90
2018-05-24T07:47:41.686Z,99.90
2018-05-24T07:49:45.028Z,99.90
2018-05-24T07:51:48.381Z,99.90
2018-05-24T07:53:51.721Z,99.90
2018-05-24T07:55:55.627Z,99.90
2018-05-24T07:57:59.546Z,99.90
2018-05-24T08:00:02.972Z,99.90
2018-05-24T08:02:06.303Z,99.90
2018-05-24T08:04:09.722Z,99.90
2018-05-24T08:06:13.071Z,99.90
2018-05-24T08:08:16.486Z,99.90
2018-05-24T08:10:20.008Z,99.90
2018-05-24T08:12:23.403Z,99.90
2018-05-24T08:14:27.132Z,99.90
2018-05-24T08:16:30.493Z,99.90
2018-05-24T08:18:33.850Z,99.90
2018-05-24T08:20:37.176Z,99.90
2018-05-24T08:22:41.021Z,99.90
2018-05-24T08:24:44.370Z,99.90
2018-05-24T08:26:47.702Z,99.90
2018-05-24T08:28:51.026Z,99.90
2018-05-24T08:30:54.362Z,99.90
2018-05-24T08:32:57.704Z,99.90
2018-05-24T08:35:01.116Z,99.90
2018-05-24T08:37:04.417Z,99.90
2018-05-24T08:39:07.776Z,99.90
2018-05-24T08:41:12.376Z,99.90
2018-05-24T08:43:15.724Z,99.90
2018-05-24T08:45:19.041Z,99.90
2018-05-24T08:47:22.511Z,99.90
2018-05-24T08:49:25.787Z,99.90
2018-05-24T08:51:29.106Z,99.90
2018-05-24T08:53:32.550Z,99.90
2018-05-24T08:55:35.900Z,99.90
2018-05-24T08:57:40.091Z,99.90
2018-05-24T08:59:43.596Z,99.90
2018-05-24T09:01:47.854Z,99.90
2018-05-24T09:03:51.249Z,99.90
2018-05-24T09:05:54.655Z,99.90
2018-05-24T09:07:57.983Z,99.90
2018-05-24T09:10:01.341Z,99.90
2018-05-24T09:12:04.760Z,99.90
2018-05-24T09:14:09.225Z,99.90
2018-05-24T09:16:12.653Z,99.90
2018-05-24T09:18:15.989Z,99.90
2018-05-24T09:20:19.487Z,99.90
2018-05-24T09:22:22.808Z,99.90
2018-05-24T09:24:26.199Z,99.90
2018-05-24T09:26:30.361Z,99.90
2018-05-24T09:28:33.699Z,99.90
2018-05-24T09:30:38.172Z,99.90
2018-05-24T09:32:41.625Z,99.90
2018-05-24T09:34:45.097Z,99.90
2018-05-24T09:36:48.693Z,99.90
2018-05-24T09:38:52.076Z,99.90
2018-05-24T09:40:55.477Z,99.90
2018-05-24T09:42:58.876Z,99.90
2018-05-24T09:45:02.233Z,99.90
2018-05-24T09:47:05.589Z,99.90
2018-05-24T09:49:09.145Z,99.90
2018-05-24T09:51:12.518Z,99.90
2018-05-24T09:53:15.951Z,99.90
2018-05-24T09:55:19.340Z,99.90
2018-05-24T09:57:22.742Z,99.90
2018-05-24T09:59:26.088Z,99.90
2018-05-24T10:01:29.488Z,99.90
2018-05-24T10:03:32.968Z,99.90
2018-05-24T10:05:36.446Z,99.90
2018-05-24T10:07:39.914Z,99.90
2018-05-24T10:09:43.387Z,99.90
2018-05-24T10:11:46.810Z,99.90
2018-05-24T10:13:50.151Z,99.90
2018-05-24T10:15:53.500Z,99.90
2018-05-24T10:17:56.885Z,99.90
2018-05-24T10:20:00.373Z,99.90
2018-05-24T10:22:03.783Z,99.90
2018-05-24T10:24:07.235Z,99.90
2018-05-24T10:26:10.777Z,99.90
2018-05-24T10:28:14.225Z,99.90
2018-05-24T10:30:17.591Z,99.90
2018-05-24T10:32:20.975Z,99.90
2018-05-24T10:34:24.437Z,99.90
2018-05-24T10:36:27.812Z,99.90
2018-05-24T10:38:31.496Z,99.90
2018-05-24T10:40:35.598Z,99.90
2018-05-24T10:42:39.249Z,99.90
2018-05-24T10:44:42.824Z,99.90
2018-05-24T10:46:46.363Z,99.90
2018-05-24T10:48:49.859Z,99.90
2018-05-24T10:50:53.311Z,99.90
2018-05-24T10:52:56.615Z,99.90
2018-05-24T10:55:00.713Z,99.90
2018-05-24T10:57:04.862Z,99.90
2018-05-24T10:59:08.204Z,99.90
2018-05-24T11:01:11.725Z,99.20
2018-05-24T11:03:15.099Z,98.90
2018-05-24T11:05:18.504Z,98.80
2018-05-24T11:07:22.642Z,98.80
2018-05-24T11:09:26.078Z,98.80
2018-05-24T11:11:29.500Z,99.20
2018-05-24T11:13:33.669Z,99.90
2018-05-24T11:15:37.012Z,99.90
2018-05-24T11:17:40.371Z,99.40
2018-05-24T11:19:43.857Z,99.50
2018-05-24T11:21:47.295Z,99.40
2018-05-24T11:23:50.782Z,99.20
2018-05-24T11:25:54.177Z,98.80
2018-05-24T11:27:58.321Z,99.20
2018-05-24T11:30:01.701Z,99.20
2018-05-24T11:32:05.176Z,99.10
2018-05-24T11:34:08.611Z,98.70
2018-05-24T11:36:11.999Z,98.30
2018-05-24T11:38:15.330Z,97.40
2018-05-24T11:40:18.727Z,98.10
2018-05-24T11:42:22.130Z,98.00
2018-05-24T11:44:25.537Z,97.10
2018-05-24T11:46:28.942Z,95.80
2018-05-24T11:48:32.423Z,96.10
2018-05-24T11:50:36.559Z,95.40
2018-05-24T11:52:39.891Z,95.40
2018-05-24T11:54:43.281Z,95.10
2018-05-24T11:56:46.804Z,95.70
2018-05-24T11:58:52.067Z,95.80
2018-05-24T12:00:56.224Z,95.80
2018-05-24T12:02:59.590Z,95.80
2018-05-24T12:05:02.946Z,96.30
2018-05-24T12:07:07.167Z,95.60
2018-05-24T12:09:10.557Z,95.50
2018-05-24T12:11:14.718Z,95.70
2018-05-24T12:13:18.106Z,95.70
2018-05-24T12:15:21.587Z,95.40
2018-05-24T12:17:24.988Z,94.80
2018-05-24T12:19:28.356Z,94.80
2018-05-24T12:21:31.768Z,95.20
2018-05-24T12:23:35.201Z,95.10
2018-05-24T12:25:38.694Z,95.60
2018-05-24T12:27:42.675Z,95.40
2018-05-24T12:29:46.146Z,95.40
2018-05-24T12:31:49.526Z,95.60
2018-05-24T12:33:53.675Z,96.40
2018-05-24T12:35:57.068Z,96.30
2018-05-24T12:38:00.462Z,96.00
2018-05-24T12:40:03.909Z,93.10
2018-05-24T12:42:07.303Z,92.50
2018-05-24T12:44:10.722Z,91.90
2018-05-24T12:46:14.078Z,91.90
2018-05-24T12:48:18.457Z,91.10
2018-05-24T12:50:21.860Z,91.10
2018-05-24T12:52:25.289Z,91.30
2018-05-24T12:54:29.000Z,90.60
2018-05-24T12:56:33.118Z,90.60
2018-05-24T12:58:38.600Z,90.60
2018-05-24T13:00:42.226Z,90.60
2018-05-24T13:02:45.703Z,90.90
2018-05-24T13:04:49.066Z,90.40
2018-05-24T13:06:52.585Z,90.10
2018-05-24T13:08:55.925Z,90.30
2018-05-24T13:11:00.262Z,89.60
2018-05-24T13:13:03.652Z,89.60
2018-05-24T13:15:07.027Z,90.00
2018-05-24T13:17:11.156Z,89.70
2018-05-24T13:19:14.497Z,89.70
2018-05-24T13:21:17.979Z,89.40
2018-05-24T13:23:21.359Z,88.70
2018-05-24T13:25:24.706Z,89.00
2018-05-24T13:27:28.031Z,90.20
2018-05-24T13:29:31.452Z,90.40
2018-05-24T13:31:34.835Z,90.10
2018-05-24T13:33:38.248Z,89.50
2018-05-24T13:35:41.597Z,89.40
2018-05-24T13:37:44.978Z,88.50
2018-05-24T13:39:48.358Z,87.40
2018-05-24T13:41:52.630Z,86.50
2018-05-24T13:43:56.041Z,86.50
2018-05-24T13:46:00.237Z,85.80
2018-05-24T13:48:03.553Z,85.80
2018-05-24T13:50:07.001Z,86.10
2018-05-24T13:52:10.500Z,86.30
2018-05-24T13:54:13.911Z,85.50
2018-05-24T13:56:17.300Z,86.10
2018-05-24T13:58:20.844Z,86.20
2018-05-24T14:00:24.234Z,85.70
2018-05-24T14:02:27.680Z,86.40
2018-05-24T14:04:31.911Z,84.70
2018-05-24T14:08:38.796Z,85.10
2018-05-24T14:10:42.690Z,84.80
2018-05-24T14:12:47.263Z,85.20
2018-05-24T14:14:50.668Z,84.90
2018-05-24T14:16:54.091Z,85.10
2018-05-24T14:18:58.076Z,85.00
2018-05-24T14:21:01.952Z,85.30
2018-05-24T14:23:05.308Z,86.30
2018-05-24T14:25:08.783Z,87.00
2018-05-24T14:27:12.194Z,88.80
2018-05-24T14:29:15.961Z,90.00
2018-05-24T14:31:19.404Z,90.40
2018-05-24T14:33:23.609Z,90.60
2018-05-24T14:35:28.269Z,91.10
2018-05-24T14:37:33.068Z,91.40
2018-05-24T14:39:36.729Z,91.60
2018-05-24T14:41:40.540Z,92.20
2018-05-24T14:43:43.935Z,92.70
2018-05-24T14:45:50.574Z,93.00
2018-05-24T14:47:57.838Z,93.30
2018-05-24T14:50:01.363Z,93.70
2018-05-24T14:52:04.903Z,94.30
2018-05-24T14:54:08.348Z,94.70
2018-05-24T14:56:12.458Z,95.60
2018-05-24T14:58:15.883Z,97.80
2018-05-24T15:00:19.352Z,99.90
2018-05-24T15:02:22.847Z,99.90
2018-05-24T15:04:26.432Z,99.90
2018-05-24T15:06:30.007Z,99.90
2018-05-24T15:08:33.362Z,99.90
2018-05-24T15:10:36.790Z,99.90
2018-05-24T15:12:40.172Z,99.90
2018-05-24T15:14:43.574Z,99.90
2018-05-24T15:16:47.132Z,99.90
2018-05-24T15:18:50.649Z,99.90
2018-05-24T15:20:54.114Z,99.90
2018-05-24T15:22:57.487Z,99.90
2018-05-24T15:25:00.936Z,99.90
2018-05-24T15:27:05.105Z,99.90
2018-05-24T15:29:08.513Z,99.90
2018-05-24T15:31:11.900Z,99.90
2018-05-24T15:33:15.255Z,99.90
2018-05-24T15:35:18.667Z,99.90
2018-05-24T15:37:22.047Z,99.90
2018-05-24T15:39:25.490Z,99.90
2018-05-24T15:41:28.900Z,99.90
2018-05-24T15:43:32.318Z,99.90
2018-05-24T15:45:35.769Z,99.90
2018-05-24T15:47:39.187Z,99.90
2018-05-24T15:49:42.524Z,99.90
2018-05-24T15:51:45.971Z,99.90
2018-05-24T15:53:49.436Z,99.90
2018-05-24T15:55:52.896Z,99.90
2018-05-24T15:57:56.289Z,99.90
2018-05-24T16:00:00.657Z,99.90
2018-05-24T16:02:04.638Z,99.90
2018-05-24T16:04:08.282Z,99.90
2018-05-24T16:06:12.574Z,99.90
2018-05-24T16:08:16.078Z,99.90
2018-05-24T16:10:19.715Z,99.90
2018-05-24T16:12:25.326Z,99.90
2018-05-24T16:14:30.336Z,99.90
2018-05-24T16:16:33.783Z,99.90
2018-05-24T16:18:37.979Z,99.90
2018-05-24T16:20:41.398Z,99.90
2018-05-24T16:22:44.815Z,99.90
2018-05-24T16:24:48.292Z,99.90
2018-05-24T16:26:51.874Z,99.90
2018-05-24T16:28:55.441Z,99.90
2018-05-24T16:31:00.921Z,99.90
2018-05-24T16:33:05.510Z,99.90
2018-05-24T16:35:09.269Z,99.90
2018-05-24T16:37:14.226Z,99.90
2018-05-24T16:39:18.565Z,99.90
2018-05-24T16:41:22.305Z,99.90
2018-05-24T16:43:26.383Z,99.90
2018-05-24T16:45:31.032Z,99.90
2018-05-24T16:47:34.524Z,99.90
2018-05-24T16:49:38.721Z,99.90
2018-05-24T16:51:42.199Z,99.90
2018-05-24T16:53:46.527Z,99.90
2018-05-24T16:55:49.972Z,99.90
2018-05-24T16:57:54.306Z,99.90
2018-05-24T17:00:04.128Z,99.90
2018-05-24T17:02:08.106Z,99.90
2018-05-24T17:04:11.689Z,99.90
2018-05-24T17:06:15.878Z,99.90
2018-05-24T17:08:20.740Z,99.90
2018-05-24T17:10:25.295Z,99.90
2018-05-24T17:12:29.329Z,99.90
2018-05-24T17:14:33.316Z,99.90
2018-05-24T17:16:37.592Z,99.60
2018-05-24T17:18:42.935Z,99.90
2018-05-24T17:20:49.394Z,99.90
2018-05-24T17:22:55.407Z,99.90
2018-05-24T17:24:59.703Z,99.90
2018-05-24T17:27:03.909Z,99.90
2018-05-24T17:29:07.502Z,99.90
2018-05-24T17:31:10.915Z,99.90
2018-05-24T17:33:14.808Z,99.90
2018-05-24T17:35:18.225Z,99.90
2018-05-24T17:37:21.715Z,99.90
2018-05-24T17:39:26.644Z,99.90
2018-05-24T17:41:30.047Z,99.90
2018-05-24T17:43:33.613Z,99.90
2018-05-24T17:45:37.802Z,99.60
2018-05-24T17:47:41.200Z,99.60
2018-05-24T17:49:45.630Z,99.80
2018-05-24T17:51:49.038Z,99.90
2018-05-24T17:53:52.422Z,99.90
2018-05-24T17:55:55.878Z,99.90
2018-05-24T17:57:59.581Z,99.90
2018-05-24T18:00:03.685Z,99.90
2018-05-24T18:02:07.322Z,99.90
2018-05-24T18:04:10.852Z,99.70
2018-05-24T18:06:14.906Z,99.90
2018-05-24T18:08:18.453Z,99.90
2018-05-24T18:10:21.962Z,99.90
2018-05-24T18:12:29.477Z,99.90
2018-05-24T18:14:34.101Z,99.90
2018-05-24T18:16:37.623Z,99.90
2018-05-24T18:18:41.004Z,99.90
2018-05-24T18:20:44.514Z,99.90
2018-05-24T18:22:48.910Z,99.90
2018-05-24T18:24:52.376Z,99.90
2018-05-24T18:26:56.695Z,99.90
2018-05-24T18:29:00.475Z,99.90
2018-05-24T18:31:04.939Z,99.90
2018-05-24T18:33:09.289Z,99.90
2018-05-24T18:35:12.690Z,99.90
2018-05-24T18:37:16.099Z,99.90
2018-05-24T18:39:19.435Z,99.90
2018-05-24T18:41:23.778Z,99.90
2018-05-24T18:43:27.391Z,99.90
2018-05-24T18:45:30.869Z,99.90
2018-05-24T18:47:34.232Z,99.90
2018-05-24T18:49:37.588Z,99.90
2018-05-24T18:51:43.101Z,99.90
2018-05-24T18:53:50.485Z,99.90
2018-05-24T18:55:54.825Z,99.90
2018-05-24T18:57:58.209Z,99.90
2018-05-24T19:00:04.975Z,99.90
2018-05-24T19:02:09.319Z,99.90
2018-05-24T19:04:13.946Z,99.90
2018-05-24T19:06:18.127Z,99.90
2018-05-24T19:08:21.574Z,99.90
2018-05-24T19:10:25.139Z,99.90
2018-05-24T19:12:28.816Z,99.90
2018-05-24T19:14:32.472Z,99.90
2018-05-24T19:16:35.795Z,99.90
2018-05-24T19:18:39.197Z,99.90
2018-05-24T19:20:42.700Z,99.90
2018-05-24T19:22:46.095Z,99.90
2018-05-24T19:24:49.502Z,99.90
2018-05-24T19:26:52.839Z,99.90
2018-05-24T19:28:56.275Z,99.90
2018-05-24T19:30:59.864Z,99.90
2018-05-24T19:33:03.218Z,99.90
2018-05-24T19:35:06.724Z,99.90
2018-05-24T19:37:10.413Z,99.90
2018-05-24T19:39:13.816Z,99.90
2018-05-24T19:41:17.269Z,99.90
2018-05-24T19:43:21.555Z,99.90
2018-05-24T19:45:25.379Z,99.90
2018-05-24T19:47:28.813Z,99.90
2018-05-24T19:49:32.242Z,99.90
2018-05-24T19:51:35.730Z,99.90
2018-05-24T19:53:40.408Z,99.90
2018-05-24T19:55:44.849Z,99.90
2018-05-24T19:57:48.618Z,99.90
2018-05-24T19:59:52.595Z,99.90
2018-05-24T20:01:57.036Z,99.90
2018-05-24T20:04:01.174Z,99.90
2018-05-24T20:06:05.162Z,99.90
2018-05-24T20:08:08.664Z,99.90
2018-05-24T20:10:12.262Z,99.90
2018-05-24T20:12:15.696Z,99.90
2018-05-24T20:14:20.076Z,99.90
2018-05-24T20:16:23.525Z,99.90
2018-05-24T20:18:27.626Z,99.90
2018-05-24T20:20:31.139Z,99.90
2018-05-24T20:22:35.448Z,99.90
2018-05-24T20:24:39.001Z,99.90
2018-05-24T20:26:43.112Z,99.90
2018-05-24T20:28:46.856Z,99.90
2018-05-24T20:30:50.238Z,99.90
2018-05-24T20:32:53.958Z,99.90
2018-05-24T20:34:57.485Z,99.90
2018-05-24T20:37:01.273Z,99.90
2018-05-24T20:39:06.959Z,99.90
2018-05-24T20:41:10.465Z,99.90
2018-05-24T20:43:13.988Z,99.90
2018-05-24T20:45:17.816Z,99.90
2018-05-24T20:47:22.427Z,99.90
2018-05-24T20:49:26.430Z,99.90
2018-05-24T20:51:30.316Z,99.90
2018-05-24T20:53:33.812Z,99.90
2018-05-24T20:55:37.780Z,99.90
2018-05-24T20:57:42.143Z,99.90
2018-05-24T20:59:45.738Z,99.90
2018-05-24T21:01:49.361Z,99.90
2018-05-24T21:03:52.969Z,99.90
2018-05-24T21:05:56.468Z,99.90
2018-05-24T21:08:00.035Z,99.90
2018-05-24T21:10:03.491Z,99.90
2018-05-24T21:12:06.851Z,99.90
2018-05-24T21:14:10.981Z,99.90
2018-05-24T21:16:14.408Z,99.90
2018-05-24T21:18:17.940Z,99.90
2018-05-24T21:20:21.781Z,99.90
2018-05-24T21:22:25.147Z,99.90
2018-05-24T21:24:29.460Z,99.90
2018-05-24T21:26:32.956Z,99.90
2018-05-24T21:28:36.391Z,99.90
2018-05-24T21:30:39.809Z,99.90
2018-05-24T21:32:44.235Z,99.90
2018-05-24T21:34:50.535Z,99.90
2018-05-24T21:36:55.210Z,99.90
2018-05-24T21:38:59.852Z,99.90
2018-05-24T21:41:03.829Z,99.90
2018-05-24T21:43:07.833Z,99.90
2018-05-24T21:45:11.778Z,99.90
2018-05-24T21:47:15.725Z,99.90
2018-05-24T21:49:19.136Z,99.90
2018-05-24T21:51:22.844Z,99.90
2018-05-24T21:53:26.221Z,99.90
2018-05-24T21:55:29.773Z,99.90
2018-05-24T21:57:33.770Z,99.90
2018-05-24T21:59:37.343Z,99.90
2018-05-24T22:01:40.914Z,99.90
2018-05-24T22:03:45.085Z,99.90
2018-05-24T22:05:48.722Z,99.90
2018-05-24T22:07:52.201Z,99.90
2018-05-24T22:09:56.437Z,99.90
2018-05-24T22:12:00.591Z,99.90
2018-05-24T22:14:04.093Z,99.90
2018-05-24T22:16:07.528Z,99.90
2018-05-24T22:18:11.727Z,99.90
2018-05-24T22:20:15.194Z,99.90
2018-05-24T22:22:18.666Z,99.90
2018-05-24T22:24:22.105Z,99.90
2018-05-24T22:26:25.694Z,99.90
2018-05-24T22:28:29.064Z,99.90
2018-05-24T22:30:32.480Z,99.90
2018-05-24T22:32:35.839Z,99.90
2018-05-24T22:34:39.328Z,99.90
2018-05-24T22:36:42.840Z,99.90
2018-05-24T22:38:46.219Z,99.90
2018-05-24T22:40:49.608Z,99.90
2018-05-24T22:42:53.024Z,99.90
2018-05-24T22:44:56.357Z,99.90
2018-05-24T22:47:00.470Z,99.90
2018-05-24T22:49:03.812Z,99.90
2018-05-24T22:51:07.124Z,99.90
2018-05-24T22:53:10.590Z,99.90
2018-05-24T22:55:15.537Z,99.90
2018-05-24T22:57:19.038Z,99.90
2018-05-24T22:59:22.465Z,99.90
2018-05-24T23:01:25.994Z,99.90
2018-05-24T23:03:32.954Z,99.90
2018-05-24T23:05:37.212Z,99.90
2018-05-24T23:07:45.352Z,99.90
2018-05-24T23:09:49.123Z,99.90
2018-05-24T23:11:52.584Z,99.90
2018-05-24T23:13:56.049Z,99.90
2018-05-24T23:15:59.802Z,99.90
2018-05-24T23:18:03.315Z,99.90
2018-05-24T23:20:07.096Z,99.90
2018-05-24T23:22:11.554Z,99.90
2018-05-24T23:24:15.104Z,99.90
2018-05-24T23:26:18.724Z,99.90
2018-05-24T23:28:22.224Z,99.90
2018-05-24T23:30:25.934Z,99.90
2018-05-24T23:32:29.393Z,99.90
2018-05-24T23:34:33.160Z,99.90
2018-05-24T23:36:37.358Z,99.90
2018-05-24T23:38:41.204Z,99.90
2018-05-24T23:40:44.561Z,99.90
2018-05-24T23:42:48.011Z,99.90
2018-05-24T23:44:51.528Z,99.90
2018-05-24T23:46:54.919Z,99.90
2018-05-24T23:48:58.302Z,99.90
2018-05-24T23:51:01.662Z,99.90
2018-05-24T23:53:05.086Z,99.90
2018-05-24T23:55:08.704Z,99.90
2018-05-24T23:57:12.124Z,99.90
2018-05-24T23:59:15.548Z,99.90
